This is the latest recevied weather packets stored in our database for station/object WV6L-13. If no packets are shown the sender has not sent any weather packets the latest 1 day(s).
| Time | Temp. | Humidity | Pressure | Rain* | Wind** | Luminosity | Snow |
|---|---|---|---|---|---|---|---|
| 1778107492 | 28.33° C | 21% | 925.5 hPa | - | - | - | - |
| 1778105992 | 28.33° C | 21% | 925.5 hPa | - | - | - | - |
| 1778105093 | 28.33° C | 21% | 925.8 hPa | - | - | - | - |
| 1778104792 | 28.33° C | 21% | 926.1 hPa | - | - | - | - |
| 1778102093 | 27.78° C | 22% | 926.6 hPa | - | - | - | - |
| 1778100893 | 26.67° C | 23% | 926.7 hPa | - | - | - | - |
| 1778097293 | 25° C | 28% | 927.4 hPa | - | - | - | - |
| 1778095493 | 24.44° C | 29% | 927.8 hPa | - | - | - | - |
| 1778093992 | 23.33° C | 31% | 928.1 hPa | - | - | - | - |
| 1778093392 | 22.78° C | 31% | 928.2 hPa | - | - | - | - |
| 1778092193 | 22.78° C | 31% | 928.3 hPa | - | - | - | - |
| 1778090693 | 21.11° C | 32% | 928.6 hPa | - | - | - | - |
| 1778090093 | 21.11° C | 32% | 928.9 hPa | - | - | - | - |
| 1778089192 | 21.11° C | 33% | 928.8 hPa | - | - | - | - |
| 1778088293 | 19.44° C | 35% | 928.9 hPa | - | - | - | - |
| 1778086193 | 20° C | 35% | 928.7 hPa | - | - | - | - |
| 1778085593 | 18.33° C | 38% | 928.9 hPa | - | - | - | - |
| 1778085293 | 17.78° C | 38% | 928.8 hPa | - | - | - | - |
| 1778084993 | 18.33° C | 38% | 928.8 hPa | - | - | - | - |
| 1778084693 | 18.33° C | 37% | 928.7 hPa | - | - | - | - |
| 1778084393 | 18.33° C | 38% | 928.7 hPa | - | - | - | - |
| 1778084093 | 18.89° C | 37% | 928.8 hPa | - | - | - | - |
| 1778082594 | 17.22° C | 39% | 928.9 hPa | - | - | - | - |
| 1778081093 | 16.11° C | 42% | 928.8 hPa | - | - | - | - |
| 1778080494 | 16.11° C | 42% | 928.7 hPa | - | - | - | - |
* Rain since midnight (hover to see other rain measurements)
** Current wind speed in m/s (hover to see current wind gust speed)